Flight Track Log - Related Links

Times and Time Zones

All times are in EST time to prevent confusion due to time zone crossing. See the SWA3943 flight status page for this flight to view local times or setup timezone preferences in your user account.

Time Position Orientation Groundspeed Altitude Reporting Facility
EST Latitude Longitude Course Direction KTS MPH feet Rate Location/Type
Fri 12:18:08 AM 41.8000 -87.7833 236° Southwest 141 162 2,100  Level Chicago TRACON
Fri 12:19:08 AM 41.7667 -87.8500 236° Southwest 212 244 3,000 905 Climbing Chicago TRACON
Fri 12:20:14 AM 41.7500 -87.9167 251° West 222 255 4,000 476 Climbing Chicago TRACON
Fri 12:21:14 AM 41.7333 -88.0000 255° West 243 280 4,000 678 Level Chicago TRACON
Fri 12:22:09 AM 41.7269 -88.0853 264° West 241 277 5,300 2,690 Climbing Chicago Center
Fri 12:23:10 AM 41.7386 -88.1769 280° West 250 288 9,200 3,620 Climbing Chicago Center
Fri 12:24:10 AM 41.7458 -88.2717 276° West 254 292 12,600 2,777 Climbing Chicago Center
Fri 12:25:11 AM 41.7578 -88.3839 278° West 286 329 14,800 2,607 Climbing Chicago Center
Fri 12:26:12 AM 41.7678 -88.5047 276° West 321 369 17,900 2,656 Climbing Chicago Center
Fri 12:27:13 AM 41.7803 -88.6317 278° West 337 388 20,200 2,479 Climbing Chicago Center
Fri 12:28:13 AM 41.7919 -88.7622 277° West 349 402 22,900 2,479 Climbing Chicago Center
Fri 12:29:14 AM 41.7800 -88.9289 265° West 380 437 25,200 2,066 Climbing Chicago Center
Fri 12:30:15 AM 41.7608 -89.0767 260° West 397 457 27,100 1,770 Climbing Chicago Center
Fri 12:31:16 AM 41.7397 -89.2261 259° West 405 466 28,800 1,785 Climbing Chicago Center
Fri 12:32:16 AM 41.7200 -89.3769 260° West 412 474 30,700 1,884 Climbing Chicago Center
Fri 12:33:17 AM 41.7000 -89.5253 260° West 408 470 32,600 1,623 Climbing Chicago Center
Fri 12:34:18 AM 41.6800 -89.6778 260° West 407 468 34,000 689 Climbing Chicago Center
Fri 12:35:19 AM 41.6428 -89.8225 251° West 412 474 34,000  Level Chicago Center
Fri 12:36:19 AM 41.5958 -89.9675 247° West 423 487 34,000 149 Level Chicago Center
Fri 12:37:20 AM 41.5503 -90.1100 247° West 421 484 34,300 836 Climbing Chicago Center
Fri 12:38:21 AM 41.5042 -90.2519 247° West 419 482 35,700 1,328 Climbing Chicago Center
Fri 12:39:22 AM 41.4581 -90.3914 246° West 415 478 37,000 1,041 Climbing Chicago Center
Fri 12:40:22 AM 41.4142 -90.5286 247° West 408 470 37,800 496 Climbing Chicago Center
Fri 12:41:23 AM 41.3678 -90.6706 247° West 416 479 38,000 98 Climbing Chicago Center
Fri 12:42:24 AM 41.3197 -90.8122 246° West 419 482 38,000  Level Chicago Center
Fri 12:43:24 AM 41.2739 -90.9514 246° West 415 478 38,000  Level Chicago Center
Fri 12:44:25 AM 41.2269 -91.0903 246° West 413 475 38,000  Level Chicago Center
Fri 12:45:26 AM 41.1814 -91.2261 246° West 408 470 38,000  Level Chicago Center
Fri 12:46:26 AM 41.1361 -91.3608 246° West 403 464 38,000  Level Chicago Center
Fri 12:47:27 AM 41.0808 -91.5247 246° West 404 465 38,000  Level Chicago Center
Fri 12:48:28 AM 41.0331 -91.6619 245° Southwest 410 472 38,000  Level Chicago Center
Fri 12:49:28 AM 40.9919 -91.8017 249° West 406 467 38,000  Level Chicago Center
Fri 12:50:29 AM 40.9581 -91.9436 257° West 405 466 38,000  Level Chicago Center
Fri 12:51:29 AM 40.9219 -92.0831 251° West 405 466 38,000  Level Chicago Center
Fri 12:52:30 AM 40.8858 -92.2236 251° West 406 467 38,000  Level Chicago Center
Fri 12:53:31 AM 40.8503 -92.3625 251° West 405 466 38,000  Level Chicago Center
Fri 12:54:31 AM 40.8150 -92.5000 251° West 400 460 38,000  Level Chicago Center
Fri 12:55:32 AM 40.7797 -92.6372 251° West 400 460 38,000  Level Chicago Center
Fri 12:56:32 AM 40.7458 -92.7736 252° West 397 457 38,000  Level Chicago Center
Fri 12:57:33 AM 40.7089 -92.9103 250° West 401 461 38,000  Level Chicago Center
Fri 12:58:33 AM 40.6731 -93.0475 251° West 399 459 38,000  Level Chicago Center
Fri 12:59:34 AM 40.6381 -93.1858 252° West 402 463 38,000  Level Chicago Center
Fri 01:00:34 AM 40.5933 -93.3511 250° West 403 464 38,000  Level Chicago Center
Fri 01:01:35 AM 40.5575 -93.4900 251° West 403 464 38,000  Level Chicago Center
Fri 01:02:36 AM 40.5189 -93.6283 250° West 406 467 38,000  Level Chicago Center
Fri 01:03:36 AM 40.4817 -93.7656 250° West 403 464 38,000  Level Chicago Center
Fri 01:04:37 AM 40.4453 -93.9022 251° West 399 459 38,000  Level Chicago Center
Fri 01:05:37 AM 40.4094 -94.0367 251° West 394 453 38,000  Level Chicago Center
Fri 01:06:38 AM 40.3728 -94.1708 250° West 393 452 38,000  Level Chicago Center
Fri 01:07:38 AM 40.3361 -94.3028 250° West 389 448 38,000  Level Chicago Center
Fri 01:09:00 AM 40.2828 -94.4894 250° West 389 448 38,000  Level Minneapolis Center
Fri 01:10:01 AM 40.2475 -94.6214 251° West 389 448 38,000  Level Minneapolis Center
Fri 01:11:01 AM 40.2117 -94.7522 250° West 386 444 38,000  Level Minneapolis Center
Fri 01:12:02 AM 40.1739 -94.8856 250° West 386 444 38,000  Level Minneapolis Center
Fri 01:13:02 AM 40.1369 -95.0217 250° West 390 449 38,000  Level Minneapolis Center
Fri 01:14:04 AM 40.0936 -95.1711 249° West 399 459 38,000  Level Kansas City Center
Fri 01:15:04 AM 40.0572 -95.2986 250° West 394 453 38,000  Level Kansas City Center
Fri 01:16:05 AM 40.0203 -95.4267 249° West 395 455 38,000  Level Kansas City Center
Fri 01:17:05 AM 39.9778 -95.5769 250° West 396 456 38,000  Level Kansas City Center
Fri 01:18:06 AM 39.9419 -95.7022 250° West 391 450 38,000  Level Kansas City Center
Fri 01:19:07 AM 39.9042 -95.8283 249° West 390 449 38,000  Level Kansas City Center
Fri 01:20:07 AM 39.8617 -95.9742 249° West 387 445 38,000  Level Kansas City Center
Fri 01:21:08 AM 39.8250 -96.0997 249° West 388 447 38,000  Level Kansas City Center
Fri 01:22:08 AM 39.7875 -96.2244 249° West 388 447 38,000  Level Kansas City Center
Fri 01:23:09 AM 39.7439 -96.3717 249° West 392 451 38,000  Level Kansas City Center
Fri 01:24:09 AM 39.7064 -96.4986 249° West 394 453 38,000  Level Kansas City Center
Fri 01:25:10 AM 39.6683 -96.6250 249° West 393 452 38,000  Level Kansas City Center
Fri 01:26:10 AM 39.6239 -96.7706 248° West 390 449 38,000  Level Kansas City Center
Fri 01:27:11 AM 39.5894 -96.8814 248° West 388 447 38,000  Level Kansas City Center
Fri 01:28:11 AM 39.5500 -97.0122 249° West 390 449 38,000  Level Kansas City Center
Fri 01:29:12 AM 39.5047 -97.1644 249° West 387 445 38,000  Level Kansas City Center
Fri 01:30:12 AM 39.4644 -97.2875 247° West 388 447 38,000  Level Kansas City Center
Fri 01:31:13 AM 39.4261 -97.4131 248° West 389 448 38,000  Level Kansas City Center
Fri 01:32:13 AM 39.3889 -97.5369 249° West 389 448 38,000  Level Kansas City Center
Fri 01:33:14 AM 39.3478 -97.6683 248° West 392 451 38,000  Level Kansas City Center
Fri 01:34:14 AM 39.3075 -97.7986 248° West 391 450 38,000  Level Kansas City Center
Fri 01:35:15 AM 39.2650 -97.9297 247° West 386 444 38,000  Level Kansas City Center
Fri 01:36:15 AM 39.2206 -98.0725 248° West 388 447 38,000  Level Kansas City Center
Fri 01:37:15 AM 39.1789 -98.2028 248° West 391 450 38,000  Level Kansas City Center
Fri 01:38:16 AM 39.1378 -98.3314 248° West 392 451 38,000  Level Kansas City Center
Fri 01:39:16 AM 39.0961 -98.4597 247° West 391 450 38,000  Level Kansas City Center
Fri 01:40:17 AM 39.0542 -98.5894 247° West 392 451 38,000  Level Kansas City Center
Fri 01:41:17 AM 39.0125 -98.7206 248° West 397 457 38,000  Level Kansas City Center
Fri 01:42:18 AM 38.9700 -98.8500 247° West 395 455 38,000  Level Kansas City Center
Fri 01:43:18 AM 38.9278 -98.9806 247° West 398 458 38,000  Level Kansas City Center
Fri 01:44:18 AM 38.8833 -99.1125 247° West 403 464 38,000  Level Kansas City Center
Fri 01:45:19 AM 38.8411 -99.2456 248° West 405 466 38,000  Level Kansas City Center
Fri 01:46:19 AM 38.7956 -99.3806 247° West 409 471 38,000  Level Kansas City Center
Fri 01:47:20 AM 38.7514 -99.5150 247° West 410 472 38,000  Level Kansas City Center
Fri 01:48:20 AM 38.7036 -99.6581 247° West 410 472 38,000  Level Kansas City Center
Fri 01:49:20 AM 38.6600 -99.7867 247° West 411 473 38,000  Level Kansas City Center
Fri 01:50:21 AM 38.6100 -99.9356 247° West 409 471 38,000  Level Kansas City Center
Fri 01:51:21 AM 38.5675 -100.0639 247° West 410 472 38,000  Level Kansas City Center
Fri 01:52:21 AM 38.5236 -100.1908 246° West 409 471 38,000  Level Kansas City Center
Fri 01:53:22 AM 38.4728 -100.3375 246° West 406 467 38,000  Level Kansas City Center
Fri 01:54:22 AM 38.4289 -100.4639 246° West 408 470 38,000  Level Kansas City Center
Fri 01:55:22 AM 38.3847 -100.5928 246° West 412 474 38,000  Level Kansas City Center
Fri 01:56:23 AM 38.3408 -100.7197 246° West 412 474 38,000  Level Kansas City Center
Fri 01:57:23 AM 38.2883 -100.8678 246° West 412 474 38,000  Level Kansas City Center
Fri 01:58:23 AM 38.2436 -100.9942 246° West 411 473 38,000  Level Kansas City Center
Fri 01:59:24 AM 38.1986 -101.1211 246° West 412 474 38,000  Level Kansas City Center
Fri 02:00:07 AM 38.1625 -101.2258 246° West 412 474 38,000  Level Denver Center
Fri 02:01:08 AM 38.1172 -101.3506 245° Southwest 410 472 38,000  Level Denver Center
Fri 02:02:08 AM 38.0814 -101.4533 246° West 404 465 38,000  Level Denver Center
Fri 02:03:09 AM 38.0217 -101.6208 246° West 408 470 38,000  Level Denver Center
Fri 02:04:09 AM 37.9764 -101.7442 245° Southwest 406 467 38,000  Level Denver Center
Fri 02:05:10 AM 37.9231 -101.8903 245° Southwest 409 471 38,000  Level Denver Center
Fri 02:06:10 AM 37.8792 -102.0142 246° West 405 466 38,000  Level Denver Center
Fri 02:07:11 AM 37.8333 -102.1394 245° Southwest 410 472 38,000  Level Denver Center
Fri 02:08:11 AM 37.7803 -102.2858 245° Southwest 410 472 38,000  Level Denver Center
Fri 02:09:12 AM 37.7344 -102.4117 245° Southwest 412 474 38,000  Level Denver Center
Fri 02:10:12 AM 37.6867 -102.5392 245° Southwest 409 471 38,000  Level Denver Center
Fri 02:11:13 AM 37.6408 -102.6628 245° Southwest 406 467 38,000  Level Denver Center
Fri 02:12:13 AM 37.5869 -102.8064 245° Southwest 406 467 38,000  Level Denver Center
Fri 02:13:13 AM 37.5422 -102.9292 245° Southwest 403 464 38,000  Level Denver Center
Fri 02:14:14 AM 37.4956 -103.0533 245° Southwest 408 470 38,000  Level Denver Center
Fri 02:15:39 AM 37.4331 -103.2197 245° Southwest 410 472 38,000  Level Denver Center
Fri 02:16:39 AM 37.3781 -103.3622 244° Southwest 405 466 38,000  Level Denver Center
Fri 02:20:11 AM 37.2067 -103.8114 239° Southwest 400 460 38,000  Level Albuquerque Center
Fri 02:20:41 AM 37.1828 -103.8703 243° Southwest 398 458 38,000  Level Denver Center
Fri 02:21:41 AM 37.1300 -104.0089 245° Southwest 393 452 38,000  Level Denver Center
Fri 02:22:12 AM 37.1067 -104.0675 243° Southwest 391 450 38,000  Level Albuquerque Center
Fri 02:23:12 AM 37.0614 -104.1847 244° Southwest 390 449 38,000  Level Albuquerque Center
Fri 02:24:13 AM 37.0144 -104.3031 244° Southwest 393 452 38,000  Level Albuquerque Center
Fri 02:25:13 AM 36.9603 -104.4425 244° Southwest 397 457 38,000  Level Albuquerque Center
Fri 02:25:43 AM 36.9361 -104.5031 243° Southwest 397 457 38,000  Level Denver Center
Fri 02:26:43 AM 36.8900 -104.6219 244° Southwest 397 457 38,000  Level Denver Center
Fri 02:27:14 AM 36.8653 -104.6822 243° Southwest 394 453 38,000  Level Albuquerque Center
Fri 02:28:15 AM 36.8158 -104.8061 244° Southwest 396 456 38,000  Level Albuquerque Center
Fri 02:29:15 AM 36.7647 -104.9325 243° Southwest 394 453 38,000  Level Albuquerque Center
Fri 02:30:16 AM 36.7183 -105.0528 244° Southwest 397 457 38,000  Level Albuquerque Center
Fri 02:31:16 AM 36.6661 -105.1800 243° Southwest 403 464 38,000  Level Albuquerque Center
Fri 02:32:17 AM 36.6136 -105.3111 244° Southwest 414 476 38,000  Level Albuquerque Center
Fri 02:33:17 AM 36.5617 -105.4378 243° Southwest 411 473 38,000  Level Albuquerque Center
Fri 02:34:18 AM 36.5108 -105.5619 243° Southwest 416 479 38,000  Level Albuquerque Center
Fri 02:35:18 AM 36.4583 -105.6928 244° Southwest 419 482 38,000  Level Albuquerque Center
Fri 02:36:19 AM 36.4050 -105.8233 243° Southwest 422 486 38,000  Level Albuquerque Center
Fri 02:37:19 AM 36.3528 -105.9519 243° Southwest 421 484 38,000  Level Albuquerque Center
Fri 02:38:19 AM 36.3003 -106.0783 243° Southwest 418 481 38,000  Level Albuquerque Center
Fri 02:39:20 AM 36.2483 -106.2028 243° Southwest 414 476 38,000  Level Albuquerque Center
Fri 02:40:20 AM 36.1967 -106.3281 243° Southwest 411 473 38,000  Level Albuquerque Center
Fri 02:41:21 AM 36.1444 -106.4519 242° Southwest 410 472 38,000  Level Albuquerque Center
Fri 02:42:21 AM 36.0878 -106.5897 243° Southwest 408 470 38,000  Level Albuquerque Center
Fri 02:43:22 AM 36.0364 -106.7103 242° Southwest 412 474 38,000  Level Albuquerque Center
Fri 02:44:22 AM 35.9772 -106.8492 242° Southwest 410 472 38,000  Level Albuquerque Center
Fri 02:45:23 AM 35.9258 -106.9689 242° Southwest 412 474 38,000  Level Albuquerque Center
Fri 02:46:23 AM 35.8736 -107.0886 242° Southwest 413 475 38,000  Level Albuquerque Center
Fri 02:47:24 AM 35.8244 -107.2083 243° Southwest 411 473 38,000  Level Albuquerque Center
Fri 02:48:24 AM 35.7639 -107.3492 242° Southwest 414 476 38,000  Level Albuquerque Center
Fri 02:49:25 AM 35.7131 -107.4697 243° Southwest 414 476 38,000  Level Albuquerque Center
Fri 02:50:25 AM 35.6622 -107.5914 243° Southwest 416 479 38,000  Level Albuquerque Center
Fri 02:51:25 AM 35.6031 -107.7336 243° Southwest 417 480 38,000  Level Albuquerque Center
Fri 02:52:26 AM 35.5528 -107.8539 243° Southwest 415 478 38,000  Level Albuquerque Center
Fri 02:53:26 AM 35.5022 -107.9753 243° Southwest 416 479 38,000  Level Albuquerque Center
Fri 02:54:27 AM 35.4508 -108.0953 242° Southwest 414 476 38,000  Level Albuquerque Center
Fri 02:55:27 AM 35.3908 -108.2378 243° Southwest 417 480 38,000  Level Albuquerque Center
Fri 02:56:28 AM 35.3400 -108.3589 243° Southwest 417 480 38,000  Level Albuquerque Center
Fri 02:57:28 AM 35.2878 -108.4808 242° Southwest 419 482 38,000  Level Albuquerque Center
Fri 02:58:29 AM 35.2269 -108.6239 243° Southwest 421 484 38,000  Level Albuquerque Center
Fri 02:59:29 AM 35.1742 -108.7461 242° Southwest 422 486 38,000  Level Albuquerque Center
Fri 03:00:29 AM 35.1217 -108.8675 242° Southwest 421 484 38,000  Level Albuquerque Center
Fri 03:01:30 AM 35.0686 -108.9878 242° Southwest 420 483 38,000  Level Albuquerque Center
Fri 03:02:30 AM 35.0078 -109.1289 242° Southwest 420 483 38,000  Level Albuquerque Center
Fri 03:03:31 AM 34.9547 -109.2494 242° Southwest 420 483 38,000 -248 Level Albuquerque Center
Fri 03:04:31 AM 34.9017 -109.3703 242° Southwest 421 484 37,500 -793 Descending Albuquerque Center
Fri 03:05:32 AM 34.8289 -109.5017 236° Southwest 421 484 36,400 -992 Descending Albuquerque Center
Fri 03:06:32 AM 34.7689 -109.6153 237° Southwest 417 480 35,500 -893 Descending Albuquerque Center
Fri 03:07:33 AM 34.7081 -109.7281 237° Southwest 416 479 34,600 -744 Descending Albuquerque Center
Fri 03:08:33 AM 34.6453 -109.8433 237° Southwest 422 486 34,000 -298 Descending Albuquerque Center
Fri 03:09:34 AM 34.5739 -109.9769 237° Southwest 423 487 34,000  Level Albuquerque Center
Fri 03:10:34 AM 34.5122 -110.0908 237° Southwest 421 484 34,000  Level Albuquerque Center
Fri 03:11:34 AM 34.4494 -110.2050 236° Southwest 424 488 34,000  Level Albuquerque Center
Fri 03:12:35 AM 34.3761 -110.3392 237° Southwest 427 491 34,000  Level Albuquerque Center
Fri 03:13:35 AM 34.3200 -110.4464 238° Southwest 437 503 34,000 -1,140 Level Albuquerque Center
Fri 03:14:36 AM 34.2489 -110.5708 235° Southwest 430 495 31,700 -2,331 Descending Albuquerque Center
Fri 03:15:36 AM 34.1825 -110.6867 235° Southwest 425 489 29,300 -2,231 Descending Albuquerque Center
Fri 03:16:37 AM 34.1247 -110.7933 237° Southwest 411 473 27,200 -2,132 Descending Albuquerque Center
Fri 03:17:37 AM 34.0633 -110.9017 236° Southwest 397 457 25,000 -2,132 Descending Albuquerque Center
Fri 03:18:38 AM 33.9908 -110.9889 225° Southwest 374 430 22,900 -1,983 Descending Albuquerque Center
Fri 03:19:38 AM 33.9175 -111.0731 224° Southwest 364 419 21,000 -1,884 Descending Albuquerque Center
Fri 03:20:39 AM 33.8594 -111.1678 234° Southwest 343 395 19,100 -2,083 Descending Albuquerque Center
Fri 03:21:39 AM 33.8181 -111.2653 243° Southwest 336 387 16,800 -2,250 Descending Albuquerque Center
Fri 03:22:39 AM 33.7803 -111.3683 246° West 337 388 14,600 -2,182 Descending Albuquerque Center
Fri 03:23:40 AM 33.7431 -111.4706 246° West 334 384 12,400 -1,785 Descending Albuquerque Center
Fri 03:24:40 AM 33.7078 -111.5703 247° West 325 374 11,000 -1,140 Descending Albuquerque Center
Fri 03:25:41 AM 33.6767 -111.6586 247° West 289 333 10,100 -496 Descending Albuquerque Center
Fri 03:26:41 AM 33.6481 -111.7414 247° West 270 311 10,000 -50 Descending Albuquerque Center
Fri 03:27:42 AM 33.6200 -111.8236 248° West 266 306 10,000 -709 Level Albuquerque Center
Fri 03:28:31 AM 33.6000 -111.9000 253° West 270 311 8,700 -1,527 Descending Phoenix TRACON
Fri 03:29:32 AM 33.5667 -111.9833 244° Southwest 264 304 7,200 -1,587 Descending Phoenix TRACON
Fri 03:30:32 AM 33.5333 -112.0667 244° Southwest 265 305 5,500 -1,100 Descending Phoenix TRACON
Fri 03:31:32 AM 33.5167 -112.1500 257° West 236 272 5,000 -1,150 Descending Phoenix TRACON
Fri 03:32:32 AM 33.4500 -112.1500 180° South 207 238 3,200 -1,200 Descending Phoenix TRACON
Fri 03:33:32 AM 33.4333 -112.1167 121° Southeast 159 183 2,600 -700 Descending Phoenix TRACON
Fri 03:34:32 AM 33.4333 -112.0667 90° East 140 161 1,800 -800 Descending Phoenix TRACON

Login

Don't have an account? Register now (free) for customized features, flight alerts, and more!